Time;durP1;ratioP1;P1;durP2;ratioP2;P2;SDS_P1;SDS_P2;PMS_P1;PMS_P2;Temp;Humidity;BMP_temperature;BMP_pressure;BME280_temperature;BME280_humidity;BME280_pressure;Samples;Min_cycle;Max_cycle;Signal;HPM_P1;HPM_P2
2020/12/17 00:00:00;;;;;;;4.13;3.45;;;13.00;69.00;;;;;;2106390;28;20116;-74
2020/12/17 00:01:00;;;;;;;6.03;3.25;;;13.00;68.90;;;;;;2103807;28;20447;-74
2020/12/17 00:02:02;;;;;;;5.03;3.78;;;13.00;69.00;;;;;;2111818;28;20031;-74
2020/12/17 00:03:03;;;;;;;3.72;2.85;;;13.00;69.00;;;;;;2112528;28;20598;-74
2020/12/17 00:04:03;;;;;;;4.13;3.00;;;13.00;69.00;;;;;;2113422;28;20114;-74
2020/12/17 00:05:04;;;;;;;3.92;3.00;;;13.00;69.00;;;;;;2114221;28;20024;-74
2020/12/17 00:06:05;;;;;;;3.97;3.50;;;13.00;69.00;;;;;;2113758;28;20498;-74
2020/12/17 00:07:05;;;;;;;4.20;3.13;;;13.00;69.00;;;;;;2113963;28;20449;-73
2020/12/17 00:08:06;;;;;;;3.65;3.28;;;13.00;69.00;;;;;;2113889;28;20087;-74
2020/12/17 00:09:06;;;;;;;4.05;3.17;;;13.00;68.90;;;;;;2111612;28;20042;-74
2020/12/17 00:10:09;;;;;;;5.45;3.20;;;13.00;68.90;;;;;;2113390;28;20028;-73
2020/12/17 00:11:10;;;;;;;4.72;3.35;;;13.00;68.90;;;;;;2114055;28;20023;-74
2020/12/17 00:12:10;;;;;;;5.28;3.20;;;13.10;68.90;;;;;;2113553;28;20016;-74
2020/12/17 00:13:11;;;;;;;4.13;3.47;;;13.10;68.80;;;;;;2113157;28;20051;-74
2020/12/17 00:14:11;;;;;;;4.65;3.38;;;13.10;68.80;;;;;;2113107;28;20027;-74
2020/12/17 00:15:14;;;;;;;5.40;3.60;;;13.10;68.80;;;;;;2112923;28;20080;-74
2020/12/17 00:16:18;;;;;;;5.53;3.00;;;13.10;68.70;;;;;;2112369;28;20031;-74
2020/12/17 00:17:19;;;;;;;7.07;3.20;;;13.10;68.60;;;;;;2113873;28;20358;-74
2020/12/17 00:18:19;;;;;;;5.85;3.90;;;13.20;68.60;;;;;;2113242;28;20031;-74
2020/12/17 00:19:20;;;;;;;4.72;2.95;;;13.20;68.60;;;;;;2113504;28;20031;-73
2020/12/17 00:20:23;;;;;;;4.07;2.90;;;13.20;68.60;;;;;;2114008;28;20023;-73
2020/12/17 00:21:24;;;;;;;5.70;3.53;;;13.20;68.50;;;;;;2113186;28;20453;-73
2020/12/17 00:22:24;;;;;;;5.03;3.17;;;13.20;68.50;;;;;;2113960;28;20028;-73
2020/12/17 00:23:25;;;;;;;4.35;3.42;;;13.30;68.50;;;;;;2113124;28;20069;-73
2020/12/17 00:24:25;;;;;;;4.90;2.95;;;13.20;68.40;;;;;;2113863;28;20042;-73
2020/12/17 00:25:26;;;;;;;3.50;2.90;;;13.30;68.40;;;;;;2105316;28;20040;-74
2020/12/17 00:26:26;;;;;;;5.50;3.25;;;13.30;68.40;;;;;;2103517;28;20506;-73
2020/12/17 00:27:27;;;;;;;4.47;2.97;;;13.30;68.30;;;;;;2113157;28;20035;-73
2020/12/17 00:28:27;;;;;;;5.80;3.25;;;13.30;68.30;;;;;;2104431;28;20028;-73
2020/12/17 00:29:28;;;;;;;5.15;2.95;;;13.30;68.20;;;;;;2104400;28;20043;-73
2020/12/17 00:30:29;;;;;;;9.23;3.28;;;13.30;68.10;;;;;;2113899;28;20061;-73
2020/12/17 00:31:29;;;;;;;5.30;3.17;;;13.30;68.10;;;;;;2113006;28;20062;-73
2020/12/17 00:32:30;;;;;;;9.63;3.28;;;13.30;68.00;;;;;;2103883;28;20433;-73
2020/12/17 00:33:30;;;;;;;5.63;3.22;;;13.30;67.90;;;;;;2104849;28;20449;-73
2020/12/17 00:34:31;;;;;;;5.60;2.83;;;13.30;67.90;;;;;;2113803;28;20358;-73
2020/12/17 00:35:31;;;;;;;3.00;2.45;;;13.30;67.80;;;;;;2112948;28;20476;-73
2020/12/17 00:36:32;;;;;;;5.35;3.05;;;13.30;67.80;;;;;;2113153;28;20496;-74
2020/12/17 00:37:33;;;;;;;5.45;2.95;;;13.30;67.80;;;;;;2113556;28;21275;-73
2020/12/17 00:38:34;;;;;;;4.80;2.78;;;13.30;67.80;;;;;;2112820;28;20085;-73
2020/12/17 00:39:35;;;;;;;7.70;3.05;;;13.30;67.70;;;;;;2112851;28;20461;-74
2020/12/17 00:40:35;;;;;;;7.60;3.20;;;13.30;67.80;;;;;;2114001;28;20027;-75
2020/12/17 00:41:36;;;;;;;4.47;2.83;;;13.30;67.70;;;;;;2113233;28;20020;-73
2020/12/17 00:42:45;;;;;;;4.35;2.75;;;13.30;67.70;;;;;;2113025;28;20450;-73
2020/12/17 00:43:45;;;;;;;3.38;2.67;;;13.30;67.70;;;;;;2113926;28;20028;-74
2020/12/17 00:44:46;;;;;;;3.55;2.45;;;13.30;67.80;;;;;;2112793;28;20348;-73
2020/12/17 00:45:46;;;;;;;6.35;2.90;;;13.30;67.80;;;;;;2112746;28;20111;-73
2020/12/17 00:46:49;;;;;;;3.20;2.60;;;13.40;67.90;;;;;;2113458;28;20019;-73
2020/12/17 00:47:50;;;;;;;5.13;2.58;;;13.30;67.80;;;;;;2112882;28;20034;-73
2020/12/17 00:48:51;;;;;;;3.72;2.60;;;13.40;67.80;;;;;;2112956;28;20038;-74
2020/12/17 00:49:51;;;;;;;5.50;2.72;;;13.30;67.70;;;;;;2113939;28;20085;-73
2020/12/17 00:50:52;;;;;;;4.60;2.85;;;13.30;67.70;;;;;;2113419;28;20028;-73
2020/12/17 00:52:00;;;;;;;5.35;3.10;;;13.40;67.70;;;;;;2114086;28;20027;-74
2020/12/17 00:53:00;;;;;;;4.95;2.80;;;13.40;67.60;;;;;;2113298;28;20032;-74
2020/12/17 00:54:01;;;;;;;4.72;2.60;;;13.40;67.60;;;;;;2112985;28;20482;-74
2020/12/17 00:55:02;;;;;;;3.63;2.80;;;13.40;67.60;;;;;;2104922;28;20113;-73
2020/12/17 00:56:04;;;;;;;6.78;2.85;;;13.40;67.60;;;;;;2104631;28;20024;-73
2020/12/17 00:57:05;;;;;;;5.57;3.03;;;13.40;67.50;;;;;;2112913;28;20019;-73
2020/12/17 00:58:06;;;;;;;4.40;2.90;;;13.40;68.30;;;;;;2113438;28;20028;-73
2020/12/17 00:59:07;;;;;;;4.35;2.92;;;13.40;67.50;;;;;;2113152;28;20035;-73
2020/12/17 01:00:08;;;;;;;4.90;3.22;;;13.40;67.50;;;;;;2112360;28;20042;-74
2020/12/17 01:01:09;;;;;;;4.35;2.97;;;13.40;67.50;;;;;;2112882;28;20067;-72
2020/12/17 01:02:10;;;;;;;4.13;2.63;;;13.40;67.50;;;;;;2113761;28;20685;-73
2020/12/17 01:03:10;;;;;;;3.10;2.75;;;13.50;67.50;;;;;;2112760;28;20032;-73
2020/12/17 01:04:11;;;;;;;5.75;2.97;;;13.50;67.50;;;;;;2112944;28;20012;-73
2020/12/17 01:05:12;;;;;;;4.47;3.15;;;13.50;67.50;;;;;;2113284;28;20020;-73
2020/12/17 01:06:12;;;;;;;5.07;2.53;;;13.50;67.50;;;;;;2113514;28;20923;-73
2020/12/17 01:07:13;;;;;;;7.65;2.53;;;13.50;67.50;;;;;;2113383;28;20120;-73
2020/12/17 01:08:13;;;;;;;3.33;2.90;;;13.50;67.50;;;;;;2113373;28;20012;-73
2020/12/17 01:09:14;;;;;;;4.72;2.65;;;13.50;67.40;;;;;;2110736;28;20603;-73
2020/12/17 01:10:15;;;;;;;5.55;3.10;;;13.50;67.40;;;;;;2113589;28;20464;-73
2020/12/17 01:11:15;;;;;;;5.75;2.78;;;13.50;67.40;;;;;;2113717;28;20092;-73
2020/12/17 01:12:16;;;;;;;4.43;2.70;;;13.50;67.40;;;;;;2113437;28;20032;-73
2020/12/17 01:13:16;;;;;;;4.00;2.65;;;13.50;67.40;;;;;;2113283;28;20035;-73
2020/12/17 01:14:17;;;;;;;6.00;2.70;;;13.50;67.30;;;;;;2112514;28;20031;-73
2020/12/17 01:15:17;;;;;;;4.15;3.10;;;13.50;67.30;;;;;;2112690;28;20027;-73
2020/12/17 01:16:18;;;;;;;5.00;3.03;;;13.50;67.20;;;;;;2112134;28;20485;-74
2020/12/17 01:17:19;;;;;;;4.82;2.95;;;13.60;67.30;;;;;;2103983;28;20040;-73
2020/12/17 01:18:19;;;;;;;4.72;2.90;;;13.50;67.20;;;;;;2104671;28;20024;-72
2020/12/17 01:19:20;;;;;;;6.22;2.78;;;13.60;67.20;;;;;;2112941;28;20024;-73
2020/12/17 01:20:20;;;;;;;3.58;2.67;;;13.60;67.20;;;;;;2112819;28;20016;-73
2020/12/17 01:21:21;;;;;;;4.20;2.90;;;13.60;67.20;;;;;;2113166;28;20035;-73
2020/12/17 01:22:23;;;;;;;8.27;3.13;;;13.60;67.20;;;;;;2103947;28;20482;-73
2020/12/17 01:23:23;;;;;;;4.70;2.78;;;13.60;67.20;;;;;;2103603;28;20035;-73
2020/12/17 01:24:24;;;;;;;5.53;2.80;;;13.60;67.10;;;;;;2112357;28;20027;-73
2020/12/17 01:25:25;;;;;;;7.93;3.05;;;13.60;67.10;;;;;;2113624;28;20034;-73
2020/12/17 01:26:26;;;;;;;5.68;3.40;;;13.60;67.10;;;;;;2112800;28;20040;-73
2020/12/17 01:27:30;;;;;;;7.53;2.75;;;13.60;67.10;;;;;;2104649;28;20060;-73
2020/12/17 01:28:30;;;;;;;6.05;3.15;;;13.60;67.10;;;;;;2104025;28;20031;-72
2020/12/17 01:29:31;;;;;;;7.50;2.80;;;13.70;67.20;;;;;;2112173;28;20021;-74
2020/12/17 01:30:32;;;;;;;5.57;2.92;;;13.60;67.10;;;;;;2113976;28;20019;-73
2020/12/17 01:31:32;;;;;;;3.55;2.83;;;13.60;67.10;;;;;;2112249;28;20135;-74
2020/12/17 01:32:33;;;;;;;4.15;3.13;;;13.60;67.00;;;;;;2112340;28;20034;-73
2020/12/17 01:33:33;;;;;;;5.32;3.10;;;13.60;66.90;;;;;;2113263;28;20586;-73
2020/12/17 01:34:34;;;;;;;5.75;3.10;;;13.70;67.00;;;;;;2112172;28;20032;-73
2020/12/17 01:35:35;;;;;;;7.20;2.67;;;13.60;66.90;;;;;;2104722;28;20024;-73
2020/12/17 01:36:35;;;;;;;4.50;2.53;;;13.70;67.10;;;;;;2103758;28;20209;-73
2020/12/17 01:37:36;;;;;;;4.35;2.92;;;13.70;67.00;;;;;;2113027;28;20042;-72
2020/12/17 01:38:38;;;;;;;5.65;3.22;;;13.70;67.00;;;;;;2112385;28;20039;-73
2020/12/17 01:39:39;;;;;;;6.82;3.00;;;13.70;66.90;;;;;;2112962;28;20335;-73
2020/12/17 01:40:44;;;;;;;6.93;3.10;;;13.70;66.90;;;;;;2113239;28;20034;-73
2020/12/17 01:41:45;;;;;;;5.63;3.15;;;13.70;66.90;;;;;;2113638;28;20036;-72
2020/12/17 01:42:45;;;;;;;4.13;3.28;;;13.70;66.90;;;;;;2112223;28;20030;-73
2020/12/17 01:43:46;;;;;;;6.75;3.13;;;13.70;66.90;;;;;;2104722;28;20047;-73
2020/12/17 01:44:47;;;;;;;5.50;3.35;;;13.70;66.90;;;;;;2101288;28;20032;-73
2020/12/17 01:45:48;;;;;;;6.22;3.28;;;13.70;66.90;;;;;;2112745;28;20023;-73
2020/12/17 01:46:49;;;;;;;6.88;2.85;;;13.70;66.90;;;;;;2103309;28;20028;-73
2020/12/17 01:47:51;;;;;;;4.57;3.15;;;13.70;66.90;;;;;;2103894;28;20043;-73
2020/12/17 01:48:51;;;;;;;6.07;3.35;;;13.70;66.90;;;;;;2112240;28;20461;-73
2020/12/17 01:49:52;;;;;;;7.20;3.50;;;13.70;66.90;;;;;;2112906;28;20084;-73
2020/12/17 01:50:52;;;;;;;5.93;3.17;;;13.70;66.90;;;;;;2113122;28;20335;-73
2020/12/17 01:51:53;;;;;;;5.63;3.20;;;13.70;66.90;;;;;;2113237;28;20026;-73
2020/12/17 01:52:54;;;;;;;6.32;3.55;;;13.70;66.90;;;;;;2111909;28;20031;-73
2020/12/17 01:53:56;;;;;;;7.03;2.90;;;13.70;66.90;;;;;;2112652;28;20020;-73
2020/12/17 01:54:56;;;;;;;6.05;3.13;;;13.70;66.90;;;;;;2112882;28;20023;-73
2020/12/17 01:56:02;;;;;;;4.10;2.95;;;13.70;66.90;;;;;;2112206;28;20354;-73
2020/12/17 01:57:04;;;;;;;4.22;3.08;;;13.80;67.00;;;;;;2113083;28;20066;-73
2020/12/17 01:58:06;;;;;;;9.18;3.22;;;13.70;66.90;;;;;;2112614;28;20039;-73
2020/12/17 01:59:23;;;;;;;7.40;3.75;;;13.80;67.10;;;;;;2112066;28;20039;-73
2020/12/17 02:00:25;;;;;;;6.05;3.25;;;13.80;67.10;;;;;;2112791;28;20081;-73
2020/12/17 02:01:30;;;;;;;5.10;3.20;;;13.80;67.10;;;;;;2112269;28;20055;-73
2020/12/17 02:02:31;;;;;;;8.63;3.47;;;13.80;67.00;;;;;;2111712;28;20046;-73
2020/12/17 02:03:32;;;;;;;5.50;3.40;;;13.80;67.80;;;;;;2112873;28;20055;-73
2020/12/17 02:04:32;;;;;;;6.00;3.85;;;13.80;67.10;;;;;;2113162;28;20024;-73
2020/12/17 02:05:33;;;;;;;6.43;3.72;;;13.80;67.20;;;;;;2113311;28;20015;-75
2020/12/17 02:06:34;;;;;;;5.68;3.80;;;13.80;67.20;;;;;;2112050;28;20054;-74
2020/12/17 02:07:35;;;;;;;8.00;4.05;;;13.80;67.20;;;;;;2112430;28;20107;-73
2020/12/17 02:08:38;;;;;;;8.82;3.67;;;13.80;67.20;;;;;;2112958;28;20105;-73
2020/12/17 02:09:40;;;;;;;6.93;3.80;;;13.80;67.20;;;;;;2113087;28;20030;-73
2020/12/17 02:10:40;;;;;;;5.10;3.75;;;13.80;67.20;;;;;;2104171;28;20023;-73
2020/12/17 02:11:51;;;;;;;7.90;3.72;;;13.70;67.20;;;;;;2104322;28;20028;-73
2020/12/17 02:12:52;;;;;;;6.70;4.03;;;13.80;67.30;;;;;;2112589;28;20091;-73
2020/12/17 02:13:52;;;;;;;3.67;3.35;;;13.80;67.30;;;;;;2111703;28;20116;-74
2020/12/17 02:14:53;;;;;;;7.05;3.90;;;13.80;67.30;;;;;;2112990;28;20012;-72
2020/12/17 02:15:53;;;;;;;4.95;3.38;;;13.80;67.30;;;;;;2112609;28;20046;-73
2020/12/17 02:16:54;;;;;;;4.13;3.72;;;13.80;67.30;;;;;;2112127;28;20627;-73
2020/12/17 02:17:55;;;;;;;5.20;3.70;;;13.80;67.30;;;;;;2112678;28;20557;-72
2020/12/17 02:18:55;;;;;;;7.45;3.85;;;13.80;67.30;;;;;;2113145;28;20103;-73
2020/12/17 02:19:56;;;;;;;6.35;3.40;;;13.80;67.30;;;;;;2112454;28;20024;-73
2020/12/17 02:20:57;;;;;;;6.00;3.60;;;13.80;67.30;;;;;;2112302;28;20027;-73
2020/12/17 02:21:58;;;;;;;15.85;4.00;;;13.80;67.40;;;;;;2112950;28;20028;-75
2020/12/17 02:23:00;;;;;;;4.07;3.60;;;13.80;67.30;;;;;;2112415;28;20016;-74
2020/12/17 02:24:01;;;;;;;4.60;3.83;;;13.80;67.40;;;;;;2103372;28;20029;-73
2020/12/17 02:25:05;;;;;;;5.47;3.88;;;13.80;67.30;;;;;;2104174;28;20522;-74
2020/12/17 02:26:06;;;;;;;5.07;3.65;;;13.80;67.40;;;;;;2112453;28;20020;-73
2020/12/17 02:27:07;;;;;;;6.07;3.95;;;13.80;67.40;;;;;;2112595;28;20028;-74
2020/12/17 02:28:07;;;;;;;5.97;4.40;;;13.80;67.40;;;;;;2113333;28;20481;-74
2020/12/17 02:29:08;;;;;;;5.22;4.13;;;13.80;67.40;;;;;;2111515;28;20046;-75
2020/12/17 02:30:10;;;;;;;4.20;3.67;;;13.80;67.40;;;;;;2112794;28;20418;-75
2020/12/17 02:31:11;;;;;;;5.60;3.60;;;13.80;67.50;;;;;;2111829;28;20106;-74
2020/12/17 02:32:11;;;;;;;7.45;4.50;;;13.80;67.50;;;;;;2112804;28;20441;-73
2020/12/17 02:33:12;;;;;;;5.85;4.22;;;13.80;67.50;;;;;;2111785;28;20039;-73
2020/12/17 02:34:13;;;;;;;4.82;3.53;;;13.70;67.40;;;;;;2096230;28;20029;-74
2020/12/17 02:35:13;;;;;;;7.18;4.43;;;13.80;67.50;;;;;;2095875;28;20566;-73
2020/12/17 02:36:14;;;;;;;7.05;4.53;;;13.80;67.50;;;;;;2112681;28;20027;-73
2020/12/17 02:37:15;;;;;;;5.68;4.22;;;13.80;67.50;;;;;;2112681;28;20341;-73
2020/12/17 02:38:15;;;;;;;5.45;4.32;;;13.80;67.50;;;;;;2112562;28;20019;-73
2020/12/17 02:39:16;;;;;;;4.63;4.10;;;13.80;67.50;;;;;;2112097;28;20027;-73
2020/12/17 02:40:16;;;;;;;5.07;4.57;;;13.80;67.60;;;;;;2112582;28;20027;-73
2020/12/17 02:41:17;;;;;;;7.40;4.15;;;13.80;67.60;;;;;;2112408;28;20031;-73
2020/12/17 02:42:18;;;;;;;4.32;3.90;;;13.80;67.60;;;;;;2101828;28;20032;-73
2020/12/17 02:43:18;;;;;;;6.97;4.50;;;13.80;67.50;;;;;;2103574;28;20046;-73
2020/12/17 02:44:19;;;;;;;5.07;4.35;;;13.80;67.50;;;;;;2112708;28;20107;-73
2020/12/17 02:45:20;;;;;;;6.80;4.63;;;13.80;67.50;;;;;;2113060;28;20019;-74
2020/12/17 02:46:21;;;;;;;7.82;4.57;;;13.80;67.50;;;;;;2111231;28;20469;-73
2020/12/17 02:47:21;;;;;;;7.18;4.28;;;13.80;67.50;;;;;;2112314;28;20088;-73
2020/12/17 02:48:22;;;;;;;7.30;4.60;;;13.80;67.50;;;;;;2111691;28;20039;-73
2020/12/17 02:49:22;;;;;;;5.72;4.47;;;13.80;67.50;;;;;;2112108;28;20454;-74
2020/12/17 02:50:23;;;;;;;9.10;4.38;;;13.80;67.60;;;;;;2103682;28;20078;-73
2020/12/17 02:51:24;;;;;;;6.55;4.78;;;13.70;67.60;;;;;;2103735;28;20016;-73
2020/12/17 02:52:24;;;;;;;4.70;4.20;;;13.70;67.60;;;;;;2112340;28;20035;-73
2020/12/17 02:53:25;;;;;;;6.55;4.63;;;13.70;67.60;;;;;;2112365;28;20183;-73
2020/12/17 02:54:25;;;;;;;5.13;4.47;;;13.70;67.60;;;;;;2112457;28;20394;-73
2020/12/17 02:55:26;;;;;;;6.20;4.22;;;13.70;67.60;;;;;;2113107;28;20027;-73
2020/12/17 02:56:26;;;;;;;7.18;4.70;;;13.70;67.60;;;;;;2111121;28;20449;-74
2020/12/17 02:57:27;;;;;;;6.93;4.72;;;13.70;67.70;;;;;;2112482;28;20047;-73
2020/12/17 02:58:28;;;;;;;5.53;4.40;;;13.70;67.70;;;;;;2099360;28;20055;-73
2020/12/17 02:59:28;;;;;;;7.75;4.45;;;13.70;67.70;;;;;;2100756;28;20560;-73
2020/12/17 03:00:29;;;;;;;4.68;4.07;;;13.70;67.70;;;;;;2113045;28;20668;-73
2020/12/17 03:01:29;;;;;;;8.77;4.35;;;13.70;67.70;;;;;;2112140;28;20096;-73
2020/12/17 03:02:30;;;;;;;5.10;4.55;;;13.70;67.70;;;;;;2111603;28;20028;-73
2020/12/17 03:03:31;;;;;;;5.85;4.22;;;13.70;67.60;;;;;;2111960;28;20070;-73
2020/12/17 03:04:32;;;;;;;5.53;3.90;;;13.70;67.60;;;;;;2112032;28;20024;-73
2020/12/17 03:05:32;;;;;;;8.00;4.60;;;13.70;67.70;;;;;;2113006;28;20126;-74
2020/12/17 03:06:33;;;;;;;6.25;4.65;;;13.70;67.70;;;;;;2112286;28;20027;-73
2020/12/17 03:07:33;;;;;;;7.25;4.72;;;13.70;67.70;;;;;;2112512;28;20020;-73
2020/12/17 03:08:34;;;;;;;6.20;4.30;;;13.70;67.60;;;;;;2112519;28;20063;-73
2020/12/17 03:09:35;;;;;;;4.90;4.40;;;13.70;67.60;;;;;;2112038;28;20028;-73
2020/12/17 03:10:35;;;;;;;7.65;4.40;;;13.70;67.60;;;;;;2112781;28;20504;-73
2020/12/17 03:11:36;;;;;;;5.00;4.50;;;13.70;67.60;;;;;;2111883;28;20465;-73
2020/12/17 03:12:36;;;;;;;6.15;4.82;;;13.70;67.60;;;;;;2111498;28;20381;-73
2020/12/17 03:13:37;;;;;;;6.93;4.38;;;13.70;67.60;;;;;;2112801;28;20063;-73
2020/12/17 03:14:37;;;;;;;5.80;4.30;;;13.70;67.60;;;;;;2112004;28;20022;-73
2020/12/17 03:15:38;;;;;;;5.40;3.90;;;13.70;67.60;;;;;;2112210;28;20122;-73
2020/12/17 03:16:39;;;;;;;6.55;4.38;;;13.80;67.60;;;;;;2111880;28;20039;-73
2020/12/17 03:17:40;;;;;;;5.50;4.07;;;13.70;67.50;;;;;;2110973;28;20508;-73
2020/12/17 03:18:41;;;;;;;6.15;3.97;;;13.70;67.60;;;;;;2111749;28;20074;-73
2020/12/17 03:19:41;;;;;;;5.60;4.18;;;13.70;67.60;;;;;;2112724;28;20027;-73
2020/12/17 03:20:42;;;;;;;5.43;4.25;;;13.70;67.60;;;;;;2112128;28;20040;-73
2020/12/17 03:21:42;;;;;;;4.78;4.05;;;13.70;67.60;;;;;;2112299;28;20027;-73
2020/12/17 03:22:43;;;;;;;4.53;3.97;;;13.70;67.50;;;;;;2111911;28;20323;-73
2020/12/17 03:23:44;;;;;;;8.00;4.03;;;13.70;67.50;;;;;;2112489;28;20244;-74
2020/12/17 03:24:44;;;;;;;4.93;3.80;;;13.70;67.50;;;;;;2112429;28;20032;-73
2020/12/17 03:25:45;;;;;;;6.60;4.45;;;13.70;67.40;;;;;;2112234;28;20044;-73
2020/12/17 03:26:46;;;;;;;5.30;4.43;;;13.70;67.40;;;;;;2111951;28;20031;-73
2020/12/17 03:27:46;;;;;;;5.93;4.13;;;13.70;67.50;;;;;;2112229;28;20027;-73
2020/12/17 03:28:47;;;;;;;7.43;3.97;;;13.70;67.40;;;;;;2112016;28;20042;-73
2020/12/17 03:29:47;;;;;;;5.82;3.80;;;13.70;67.40;;;;;;2112512;28;20030;-73
2020/12/17 03:30:48;;;;;;;4.30;3.90;;;13.80;67.50;;;;;;2112422;28;20462;-73
2020/12/17 03:31:48;;;;;;;8.13;4.57;;;13.70;67.40;;;;;;2111914;28;20050;-73
2020/12/17 03:32:49;;;;;;;5.57;3.63;;;13.80;67.40;;;;;;2112643;28;20085;-73
2020/12/17 03:33:50;;;;;;;7.22;4.10;;;13.70;67.30;;;;;;2114212;28;20406;-73
2020/12/17 03:34:50;;;;;;;4.53;4.03;;;13.70;67.30;;;;;;2114708;28;20264;-73
2020/12/17 03:35:51;;;;;;;4.50;3.50;;;13.80;67.30;;;;;;2114418;28;20024;-73
2020/12/17 03:36:52;;;;;;;6.00;4.18;;;13.70;67.30;;;;;;2114197;28;20111;-73
2020/12/17 03:37:57;;;;;;;5.63;4.20;;;13.70;67.20;;;;;;2114034;28;20083;-72
2020/12/17 03:38:58;;;;;;;4.82;3.83;;;13.70;67.20;;;;;;2113060;28;20023;-73
2020/12/17 03:39:58;;;;;;;7.18;4.10;;;13.80;67.30;;;;;;2114275;28;20435;-72
2020/12/17 03:40:59;;;;;;;5.45;4.00;;;13.80;67.30;;;;;;2113751;28;20066;-72
2020/12/17 03:42:00;;;;;;;5.90;4.10;;;13.80;67.20;;;;;;2113931;28;20091;-72
2020/12/17 03:43:00;;;;;;;5.07;4.15;;;13.80;67.20;;;;;;2113798;28;20023;-72
2020/12/17 03:44:01;;;;;;;4.22;3.83;;;13.80;67.10;;;;;;2114158;28;20027;-72
2020/12/17 03:45:01;;;;;;;4.65;3.65;;;13.80;67.10;;;;;;2113617;28;20053;-73
2020/12/17 03:46:02;;;;;;;5.68;3.80;;;13.80;67.10;;;;;;2114285;28;20085;-72
2020/12/17 03:47:03;;;;;;;4.88;3.58;;;13.80;67.00;;;;;;2113537;28;20016;-72
2020/12/17 03:48:03;;;;;;;4.20;3.83;;;13.80;67.00;;;;;;2113192;28;20081;-72
2020/12/17 03:49:04;;;;;;;4.80;3.70;;;13.80;67.00;;;;;;2114251;28;20070;-73
2020/12/17 03:50:04;;;;;;;4.15;3.33;;;13.80;67.10;;;;;;2113528;28;20107;-72
2020/12/17 03:51:05;;;;;;;6.55;4.00;;;13.80;67.10;;;;;;2113863;27;20087;-73
2020/12/17 03:52:05;;;;;;;5.63;3.78;;;13.80;67.00;;;;;;2113593;28;20032;-72
2020/12/17 03:53:06;;;;;;;10.50;4.30;;;13.80;67.00;;;;;;2113324;28;20023;-72
2020/12/17 03:54:07;;;;;;;4.97;3.92;;;13.80;67.00;;;;;;2113729;28;20028;-73
2020/12/17 03:55:08;;;;;;;6.38;4.25;;;13.80;67.00;;;;;;2113828;28;20034;-72
2020/12/17 03:56:08;;;;;;;4.30;3.38;;;13.80;67.00;;;;;;2113628;28;20106;-72
2020/12/17 03:57:09;;;;;;;5.25;4.10;;;13.80;67.00;;;;;;2114432;28;20028;-73
2020/12/17 03:58:09;;;;;;;9.27;4.07;;;13.80;66.90;;;;;;2113877;28;20023;-72
2020/12/17 03:59:10;;;;;;;5.28;3.72;;;13.80;66.90;;;;;;2112866;28;20020;-72
2020/12/17 04:00:10;;;;;;;4.15;3.58;;;13.80;66.90;;;;;;2114104;28;20020;-72
2020/12/17 04:01:11;;;;;;;4.30;3.30;;;13.80;66.90;;;;;;2113555;28;20035;-72
2020/12/17 04:02:11;;;;;;;4.63;3.67;;;13.80;66.80;;;;;;2114133;28;20016;-73
2020/12/17 04:03:12;;;;;;;4.05;3.63;;;13.80;66.80;;;;;;2113204;28;20032;-72
2020/12/17 04:04:13;;;;;;;5.10;3.63;;;13.80;66.80;;;;;;2113785;28;20028;-73
2020/12/17 04:05:13;;;;;;;4.45;3.63;;;13.80;66.80;;;;;;2114230;28;20020;-74
2020/12/17 04:06:14;;;;;;;4.78;3.38;;;13.80;66.80;;;;;;2113577;28;20119;-72
2020/12/17 04:07:15;;;;;;;6.10;3.88;;;13.80;66.80;;;;;;2114190;28;20080;-72
2020/12/17 04:08:15;;;;;;;5.07;3.95;;;13.80;66.80;;;;;;2113733;28;20023;-72
2020/12/17 04:09:16;;;;;;;4.35;3.42;;;13.80;66.80;;;;;;2113136;28;20059;-72
2020/12/17 04:10:16;;;;;;;3.95;3.42;;;13.80;66.80;;;;;;2114167;28;20020;-74
2020/12/17 04:11:17;;;;;;;6.97;3.58;;;13.80;66.80;;;;;;2101381;28;20012;-73
2020/12/17 04:12:17;;;;;;;4.38;3.50;;;13.80;66.80;;;;;;2101331;28;20109;-74
2020/12/17 04:13:18;;;;;;;5.20;3.88;;;13.80;66.70;;;;;;2101474;28;20031;-74
2020/12/17 04:14:18;;;;;;;4.13;3.50;;;13.80;66.80;;;;;;2101633;28;20767;-74
2020/12/17 04:15:19;;;;;;;4.63;3.80;;;13.80;66.70;;;;;;2114187;28;20322;-73
2020/12/17 04:16:20;;;;;;;6.88;3.90;;;13.80;66.80;;;;;;2112721;28;20351;-74
2020/12/17 04:17:20;;;;;;;4.07;3.45;;;13.80;66.80;;;;;;2113293;28;20092;-74
2020/12/17 04:18:21;;;;;;;4.32;3.63;;;13.80;66.70;;;;;;2113573;28;20019;-74
2020/12/17 04:19:21;;;;;;;4.45;3.47;;;13.80;66.70;;;;;;2112304;28;20024;-74
2020/12/17 04:20:22;;;;;;;4.85;3.65;;;13.80;66.70;;;;;;2113986;28;20357;-74
2020/12/17 04:21:22;;;;;;;4.50;3.95;;;13.80;66.70;;;;;;2112942;28;20027;-74
2020/12/17 04:22:23;;;;;;;4.95;3.65;;;13.80;66.70;;;;;;2113265;28;20023;-74
2020/12/17 04:23:24;;;;;;;4.00;3.60;;;13.80;66.70;;;;;;2113216;28;20051;-74
2020/12/17 04:24:24;;;;;;;5.43;3.22;;;13.80;66.70;;;;;;2113622;28;20016;-74
2020/12/17 04:25:25;;;;;;;4.53;3.88;;;13.80;66.70;;;;;;2113763;28;20020;-74
2020/12/17 04:26:26;;;;;;;4.30;3.90;;;13.90;66.70;;;;;;2113907;28;20032;-74
2020/12/17 04:27:26;;;;;;;5.05;4.03;;;13.90;66.70;;;;;;2103922;28;20077;-74
2020/12/17 04:28:27;;;;;;;4.18;3.78;;;13.90;66.70;;;;;;2104816;28;20070;-75
2020/12/17 04:29:27;;;;;;;4.63;3.75;;;13.90;66.70;;;;;;2113501;28;20477;-74
2020/12/17 04:30:28;;;;;;;4.40;3.47;;;13.80;66.60;;;;;;2113687;28;20028;-74
2020/12/17 04:31:28;;;;;;;5.10;4.00;;;13.90;66.70;;;;;;2113335;28;20031;-74
2020/12/17 04:32:29;;;;;;;5.00;3.42;;;13.90;66.60;;;;;;2112076;28;20038;-73
2020/12/17 04:33:30;;;;;;;5.32;4.00;;;13.90;66.60;;;;;;2112759;28;20046;-74
2020/12/17 04:34:31;;;;;;;4.32;3.50;;;13.90;66.50;;;;;;2113666;28;20069;-73
2020/12/17 04:35:31;;;;;;;3.85;3.55;;;13.90;66.50;;;;;;2113410;28;20028;-74
2020/12/17 04:36:32;;;;;;;4.10;3.70;;;13.90;66.60;;;;;;2113920;28;20027;-74
2020/12/17 04:37:33;;;;;;;4.50;3.78;;;13.90;66.60;;;;;;2113799;28;20113;-73
2020/12/17 04:38:34;;;;;;;5.22;3.65;;;13.90;66.60;;;;;;2112152;28;20331;-74
2020/12/17 04:39:34;;;;;;;5.00;3.80;;;13.90;66.60;;;;;;2114114;28;20085;-73
2020/12/17 04:40:35;;;;;;;3.75;3.45;;;14.00;66.60;;;;;;2113553;28;20046;-73
2020/12/17 04:41:37;;;;;;;3.95;3.55;;;14.00;66.60;;;;;;2113253;28;20458;-72
2020/12/17 04:42:38;;;;;;;4.10;3.40;;;14.00;66.70;;;;;;2113395;28;20107;-72
2020/12/17 04:43:38;;;;;;;4.00;3.63;;;13.90;66.60;;;;;;2113289;28;20020;-72
2020/12/17 04:44:40;;;;;;;4.30;3.70;;;14.00;66.60;;;;;;2112990;28;20555;-72
2020/12/17 04:45:41;;;;;;;4.53;3.83;;;14.00;66.60;;;;;;2113613;28;20029;-74
2020/12/17 04:46:48;;;;;;;3.92;3.55;;;14.00;66.60;;;;;;2113019;28;20070;-72
2020/12/17 04:47:51;;;;;;;3.95;3.58;;;14.00;66.60;;;;;;2113220;28;20165;-74
2020/12/17 04:48:53;;;;;;;4.00;3.70;;;14.00;66.60;;;;;;2112546;28;20035;-72
2020/12/17 04:50:02;;;;;;;6.07;4.20;;;14.00;66.60;;;;;;2113821;28;20040;-75
2020/12/17 04:51:05;;;;;;;4.10;3.40;;;14.00;66.50;;;;;;2113920;28;20489;-74
2020/12/17 04:52:07;;;;;;;4.03;3.33;;;14.00;66.50;;;;;;2113187;28;20012;-74
2020/12/17 04:53:13;;;;;;;4.13;3.70;;;14.00;66.50;;;;;;2112519;28;20039;-74
2020/12/17 04:54:15;;;;;;;4.78;3.65;;;14.00;66.50;;;;;;2113458;28;20457;-73
2020/12/17 04:55:15;;;;;;;3.85;3.50;;;14.00;66.50;;;;;;2112913;28;20016;-75
2020/12/17 04:56:18;;;;;;;4.28;3.88;;;14.10;66.60;;;;;;2113088;28;20374;-74
2020/12/17 04:57:25;;;;;;;5.22;3.65;;;14.10;66.60;;;;;;2113263;28;20403;-72
2020/12/17 04:58:30;;;;;;;3.88;3.58;;;14.10;66.60;;;;;;2111991;28;20035;-72
2020/12/17 04:59:44;;;;;;;5.13;3.95;;;14.10;66.60;;;;;;2112455;28;20026;-73
2020/12/17 05:00:54;;;;;;;5.25;3.88;;;14.10;66.60;;;;;;2113439;28;20572;-72
2020/12/17 05:01:59;;;;;;;4.07;3.50;;;14.00;66.60;;;;;;2112643;28;20030;-72
2020/12/17 05:03:09;;;;;;;5.22;3.53;;;14.00;66.60;;;;;;2112712;28;20024;-73
2020/12/17 05:04:11;;;;;;;6.80;4.30;;;14.00;66.50;;;;;;2113065;28;20019;-73
2020/12/17 05:05:12;;;;;;;3.80;3.50;;;14.10;66.60;;;;;;2104993;28;20028;-72
2020/12/17 05:06:20;;;;;;;4.15;3.75;;;14.00;66.50;;;;;;2104092;28;20016;-72
2020/12/17 05:07:23;;;;;;;4.88;3.55;;;14.10;66.70;;;;;;2113218;28;20357;-73
2020/12/17 05:08:24;;;;;;;4.40;3.80;;;14.10;66.70;;;;;;2104653;28;20047;-74
2020/12/17 05:09:24;;;;;;;3.92;3.45;;;14.10;66.80;;;;;;2103970;28;20036;-73
2020/12/17 05:10:25;;;;;;;5.47;3.40;;;14.00;66.70;;;;;;2113993;28;20480;-73
2020/12/17 05:11:26;;;;;;;4.63;3.88;;;14.00;66.70;;;;;;2113663;28;20326;-73
2020/12/17 05:12:27;;;;;;;4.05;3.65;;;14.10;66.80;;;;;;2113218;28;20024;-72
2020/12/17 05:13:27;;;;;;;4.47;4.00;;;14.10;66.80;;;;;;2113845;28;20028;-73
2020/12/17 05:14:29;;;;;;;5.93;3.97;;;14.10;66.80;;;;;;2113131;28;20038;-73
2020/12/17 05:15:29;;;;;;;4.78;3.75;;;14.10;66.70;;;;;;2113019;28;20065;-74
2020/12/17 05:16:30;;;;;;;4.13;3.67;;;14.10;66.80;;;;;;2113168;28;20505;-73
2020/12/17 05:17:31;;;;;;;4.78;3.70;;;14.10;66.80;;;;;;2112932;28;20584;-74
2020/12/17 05:18:32;;;;;;;7.22;3.38;;;14.10;66.80;;;;;;2112554;28;20027;-73